リーブルヴィル の空港の天気 - METARとTAF

リーブルヴィル国際空港 ( FOOL / LBV ) - ガボン リーブルヴィル
飛行場実況気象(Metar)
観測時間12/10 06:30 WAT (12/10 05:30 UTC)
風向・風速東北東 2m/s
視程10km以上
天気現象
全天の4割程度の雲 雲底高度 340m
少しの雲 雲底高度 610m
気温26℃
湿度94%
気圧1013hPa
METARFOOL 100530Z 07004KT 9999 SCT011 FEW020CB 26/25 Q1013 NOSIG
過去の天気等 Google飛行場航空写真 Wunderground天気予報

過去48時間のMETAR

飛行場予報(TAF)
発表時間: 12/10 06:00 WAT (12/10 05:00 UTC)
予報対象時間: 10日7時 WAT ~ 11日13時 WAT
風向・風速西 2m/s
視程10km以上
全天の4割程度の雲 雲底高度 370m
少しの積乱雲 雲底高度 610m
全天の8割程度の雲 雲底高度 1010m
10日7時 WAT ~ 10日9時 WAT に 確率 30% で一時的に
視程4500m
天気現象雷雨
少しの積乱雲 雲底高度 550m
全天の8割程度の雲 雲底高度 850m
11日6時 WAT ~ 11日9時 WAT に一時的に
視程3500m
天気現象雷雨
全天の8割程度の雲 雲底高度 240m
少しの積乱雲 雲底高度 490m
全天を覆う雲 雲底高度 910m
TAF FOOL 100500Z 1006/1112 26004KT 9999 SCT012 FEW020CB BKN033
PROB30 TEMPO 1006/1008 4500 TSRA FEW018CB BKN028
TEMPO 1105/1108 3500 TSRA BKN008 FEW016CB OVC030